createdAt,value
2019-01-13T00:01:33.211Z,93.72
2019-01-13T00:03:59.619Z,93.54
2019-01-13T00:06:25.804Z,93.50
2019-01-13T00:08:51.840Z,93.45
2019-01-13T00:11:18.068Z,93.28
2019-01-13T00:13:44.436Z,93.21
2019-01-13T00:16:10.577Z,93.02
2019-01-13T00:18:36.660Z,92.19
2019-01-13T00:21:03.202Z,92.21
2019-01-13T00:23:29.469Z,91.61
2019-01-13T00:25:55.492Z,91.84
2019-01-13T00:28:21.814Z,90.97
2019-01-13T00:30:47.855Z,90.77
2019-01-13T00:33:13.927Z,89.97
2019-01-13T00:35:40.074Z,90.04
2019-01-13T00:38:06.343Z,89.91
2019-01-13T00:40:32.478Z,90.07
2019-01-13T00:42:58.603Z,89.87
2019-01-13T00:45:25.227Z,90.00
2019-01-13T00:47:51.256Z,90.49
2019-01-13T00:50:17.426Z,90.62
2019-01-13T00:52:43.677Z,91.29
2019-01-13T00:55:11.506Z,91.73
2019-01-13T00:57:37.531Z,91.29
2019-01-13T01:00:07.692Z,90.36
2019-01-13T01:02:33.899Z,90.84
2019-01-13T01:04:59.966Z,90.52
2019-01-13T01:07:26.179Z,90.45
2019-01-13T01:09:52.390Z,90.33
2019-01-13T01:12:18.427Z,89.69
2019-01-13T01:14:44.522Z,89.62
2019-01-13T01:17:10.907Z,89.37
2019-01-13T01:19:36.939Z,89.74
2019-01-13T01:22:03.793Z,89.47
2019-01-13T01:24:29.807Z,89.39
2019-01-13T01:26:55.806Z,89.28
2019-01-13T01:29:21.851Z,89.50
2019-01-13T01:31:48.031Z,89.45
2019-01-13T01:34:14.187Z,89.29
2019-01-13T01:36:40.247Z,89.36
2019-01-13T01:39:06.498Z,89.71
2019-01-13T01:41:32.803Z,89.79
2019-01-13T01:43:58.968Z,89.05
2019-01-13T01:46:25.094Z,89.23
2019-01-13T01:48:51.178Z,88.97
2019-01-13T01:51:17.699Z,89.23
2019-01-13T01:53:43.976Z,89.65
2019-01-13T01:56:10.157Z,90.18
2019-01-13T01:58:36.248Z,90.36
2019-01-13T02:01:03.009Z,90.79
2019-01-13T02:03:29.107Z,91.13
2019-01-13T02:05:55.291Z,91.28
2019-01-13T02:08:21.467Z,91.16
2019-01-13T02:10:48.042Z,91.17
2019-01-13T02:13:14.115Z,90.90
2019-01-13T02:15:40.400Z,91.65
2019-01-13T02:18:06.610Z,91.50
2019-01-13T02:20:32.663Z,91.47
2019-01-13T02:22:59.010Z,91.60
2019-01-13T02:25:25.736Z,91.53
2019-01-13T02:27:51.910Z,91.99
2019-01-13T02:30:20.192Z,92.80
2019-01-13T02:32:46.404Z,93.41
2019-01-13T02:35:12.415Z,93.12
2019-01-13T02:37:38.449Z,92.87
2019-01-13T02:40:08.265Z,92.96
2019-01-13T02:42:34.277Z,92.31
2019-01-13T02:45:00.881Z,92.12
2019-01-13T02:47:26.981Z,91.99
2019-01-13T02:49:53.387Z,92.33
2019-01-13T02:52:19.438Z,92.58
2019-01-13T02:54:45.799Z,92.36
2019-01-13T02:57:11.933Z,91.36
2019-01-13T02:59:37.927Z,91.33
2019-01-13T03:02:05.591Z,90.92
2019-01-13T03:04:31.755Z,90.49
2019-01-13T03:06:58.044Z,89.94
2019-01-13T03:09:24.061Z,89.94
2019-01-13T03:11:51.494Z,89.01
2019-01-13T03:14:17.532Z,89.23
2019-01-13T03:16:43.770Z,89.10
2019-01-13T03:19:09.904Z,89.40
2019-01-13T03:21:35.974Z,89.45
2019-01-13T03:24:02.131Z,89.64
2019-01-13T03:26:28.391Z,90.24
2019-01-13T03:28:54.506Z,90.53
2019-01-13T03:31:20.615Z,90.87
2019-01-13T03:33:46.663Z,91.24
2019-01-13T03:36:12.757Z,91.47
2019-01-13T03:38:38.921Z,91.58
2019-01-13T03:41:05.346Z,91.40
2019-01-13T03:43:31.439Z,91.33
2019-01-13T03:45:57.496Z,91.73
2019-01-13T03:48:23.607Z,91.97
2019-01-13T03:50:49.649Z,91.75
2019-01-13T03:53:15.672Z,91.78
2019-01-13T03:55:41.800Z,91.80
2019-01-13T03:58:08.063Z,92.29
2019-01-13T04:00:34.179Z,92.56
2019-01-13T04:03:00.228Z,93.26
2019-01-13T04:05:26.339Z,93.59
2019-01-13T04:07:52.657Z,94.08
2019-01-13T04:10:18.781Z,93.97
2019-01-13T04:12:45.010Z,93.58
2019-01-13T04:15:17.586Z,93.57
2019-01-13T04:17:44.421Z,93.24
2019-01-13T04:20:10.435Z,92.87
2019-01-13T04:22:36.503Z,92.74
2019-01-13T04:25:03.722Z,93.16
2019-01-13T04:27:29.769Z,93.45
2019-01-13T04:29:55.774Z,93.10
2019-01-13T04:32:21.808Z,93.22
2019-01-13T04:34:47.827Z,93.18
2019-01-13T04:37:13.877Z,93.54
2019-01-13T04:39:39.927Z,93.31
2019-01-13T04:42:05.986Z,93.78
2019-01-13T04:44:32.012Z,94.34
2019-01-13T04:46:58.401Z,94.65
2019-01-13T04:49:24.447Z,94.80
2019-01-13T04:51:50.490Z,94.83
2019-01-13T04:54:16.494Z,94.73
2019-01-13T04:56:42.530Z,94.65
2019-01-13T04:59:08.562Z,94.54
2019-01-13T05:01:36.746Z,94.09
2019-01-13T05:04:02.655Z,94.12
2019-01-13T05:06:28.680Z,93.61
2019-01-13T05:08:54.723Z,93.85
2019-01-13T05:11:20.739Z,93.74
2019-01-13T05:13:46.782Z,93.64
2019-01-13T05:16:12.826Z,93.81
2019-01-13T05:18:38.931Z,93.67
2019-01-13T05:21:04.949Z,93.85
2019-01-13T05:23:30.945Z,94.20
2019-01-13T05:25:56.974Z,93.95
2019-01-13T05:28:22.979Z,93.90
2019-01-13T05:30:49.015Z,94.35
2019-01-13T05:33:15.079Z,95.12
2019-01-13T05:35:41.122Z,95.25
2019-01-13T05:38:07.158Z,95.40
2019-01-13T05:40:33.154Z,95.66
2019-01-13T05:42:59.451Z,95.54
2019-01-13T05:45:25.704Z,95.39
2019-01-13T05:47:51.832Z,95.24
2019-01-13T05:50:18.473Z,94.58
2019-01-13T05:52:46.817Z,94.67
2019-01-13T05:55:13.525Z,94.35
2019-01-13T05:57:39.592Z,94.34
2019-01-13T06:00:12.032Z,94.03
2019-01-13T06:02:38.046Z,93.95
2019-01-13T06:05:05.366Z,93.75
2019-01-13T06:07:31.561Z,94.15
2019-01-13T06:09:57.686Z,94.79
2019-01-13T06:12:23.827Z,95.10
2019-01-13T06:14:49.838Z,95.14
2019-01-13T06:17:15.963Z,95.36
2019-01-13T06:19:41.987Z,95.02
2019-01-13T06:22:08.247Z,94.86
2019-01-13T06:24:34.353Z,95.09
2019-01-13T06:27:00.742Z,94.89
2019-01-13T06:29:26.734Z,94.96
2019-01-13T06:31:56.419Z,94.03
2019-01-13T06:34:20.746Z,93.96
2019-01-13T06:36:46.834Z,93.48
2019-01-13T06:39:12.954Z,93.22
2019-01-13T06:41:38.958Z,93.52
2019-01-13T06:44:05.003Z,93.93
2019-01-13T06:46:31.126Z,94.11
2019-01-13T06:48:58.494Z,94.22
2019-01-13T06:51:24.508Z,94.27
2019-01-13T06:53:50.538Z,94.03
2019-01-13T06:56:16.618Z,94.18
2019-01-13T06:58:42.716Z,93.81
2019-01-13T07:01:08.728Z,93.66
2019-01-13T07:03:34.749Z,93.40
2019-01-13T07:06:00.894Z,93.68
2019-01-13T07:08:28.203Z,93.21
2019-01-13T07:10:54.287Z,93.06
2019-01-13T07:13:20.389Z,93.26
2019-01-13T07:15:46.429Z,93.80
2019-01-13T07:18:12.439Z,93.91
2019-01-13T07:20:38.465Z,94.22
2019-01-13T07:23:04.465Z,94.37
2019-01-13T07:25:30.517Z,94.31
2019-01-13T07:27:56.670Z,94.57
2019-01-13T07:30:22.777Z,94.73
2019-01-13T07:32:49.072Z,94.70
2019-01-13T07:35:15.458Z,95.15
2019-01-13T07:37:41.575Z,95.48
2019-01-13T07:40:13.462Z,95.63
2019-01-13T07:42:39.590Z,95.38
2019-01-13T07:45:09.012Z,94.79
2019-01-13T07:47:35.142Z,95.40
2019-01-13T07:50:01.213Z,95.92
2019-01-13T07:52:27.385Z,95.37
2019-01-13T07:54:53.511Z,96.23
2019-01-13T07:57:20.471Z,96.79
2019-01-13T07:59:46.902Z,96.25
2019-01-13T08:02:17.885Z,95.83
2019-01-13T08:04:41.174Z,96.11
2019-01-13T08:07:07.539Z,96.41
2019-01-13T08:09:34.690Z,96.35
2019-01-13T08:12:00.710Z,96.47
2019-01-13T08:14:26.779Z,96.30
2019-01-13T08:16:52.796Z,96.31
2019-01-13T08:19:18.854Z,96.72
2019-01-13T08:21:44.960Z,96.50
2019-01-13T08:24:11.198Z,96.66
2019-01-13T08:26:37.217Z,96.50
2019-01-13T08:29:03.449Z,96.80
2019-01-13T08:31:29.473Z,96.91
2019-01-13T08:33:55.533Z,96.95
2019-01-13T08:36:21.657Z,96.79
2019-01-13T08:38:47.818Z,96.85
2019-01-13T08:41:14.012Z,97.18
2019-01-13T08:43:40.563Z,97.27
2019-01-13T08:46:06.776Z,97.08
2019-01-13T08:48:32.840Z,97.45
2019-01-13T08:50:58.939Z,97.31
2019-01-13T08:53:25.340Z,97.53
2019-01-13T08:55:52.289Z,97.44
2019-01-13T08:58:18.459Z,97.47
2019-01-13T09:00:44.798Z,97.77
2019-01-13T09:03:10.929Z,97.24
2019-01-13T09:05:37.569Z,97.20
2019-01-13T09:08:03.838Z,97.47
2019-01-13T09:10:29.857Z,97.27
2019-01-13T09:12:56.952Z,97.28
2019-01-13T09:15:24.284Z,97.34
2019-01-13T09:17:50.313Z,97.33
2019-01-13T09:20:20.252Z,97.70
2019-01-13T09:22:46.686Z,97.93
2019-01-13T09:25:12.946Z,97.79
2019-01-13T09:27:39.196Z,97.80
2019-01-13T09:30:11.943Z,97.76
2019-01-13T09:32:39.639Z,97.40
2019-01-13T09:35:06.167Z,97.64
2019-01-13T09:37:32.501Z,98.04
2019-01-13T09:39:59.108Z,98.11
2019-01-13T09:42:25.446Z,98.27
2019-01-13T09:44:51.481Z,98.21
2019-01-13T09:47:17.629Z,98.03
2019-01-13T09:49:49.854Z,98.46
2019-01-13T09:52:12.542Z,98.74
2019-01-13T09:54:38.611Z,99.01
2019-01-13T09:57:04.885Z,99.16
2019-01-13T09:59:31.045Z,99.02
2019-01-13T10:01:57.317Z,99.33
2019-01-13T10:04:23.410Z,99.45
2019-01-13T10:06:49.452Z,99.60
2019-01-13T10:09:15.537Z,99.60
2019-01-13T10:11:41.725Z,99.56
2019-01-13T10:14:08.117Z,99.41
2019-01-13T10:16:34.302Z,99.60
2019-01-13T10:19:00.654Z,99.95
2019-01-13T10:21:27.079Z,100.09
2019-01-13T10:23:53.347Z,100.11
2019-01-13T10:26:19.392Z,100.00
2019-01-13T10:28:45.507Z,100.03
2019-01-13T10:31:11.591Z,99.69
2019-01-13T10:33:38.069Z,99.41
2019-01-13T10:36:04.455Z,99.25
2019-01-13T10:38:30.551Z,99.27
2019-01-13T10:40:56.918Z,99.36
2019-01-13T10:43:23.209Z,99.37
2019-01-13T10:45:49.411Z,99.52
2019-01-13T10:48:15.529Z,99.47
2019-01-13T10:50:47.587Z,99.46
2019-01-13T10:53:13.582Z,99.34
2019-01-13T10:55:39.683Z,99.13
2019-01-13T10:58:05.740Z,99.14
2019-01-13T11:00:33.352Z,99.40
2019-01-13T11:03:02.298Z,99.34
2019-01-13T11:05:27.995Z,99.18
2019-01-13T11:07:54.685Z,98.98
2019-01-13T11:10:20.826Z,99.21
2019-01-13T11:12:47.073Z,99.24
2019-01-13T11:15:21.579Z,98.92
2019-01-13T11:17:43.895Z,98.71
2019-01-13T11:20:13.677Z,98.79
2019-01-13T11:22:39.873Z,99.03
2019-01-13T11:25:07.151Z,98.61
2019-01-13T11:27:33.412Z,98.37
2019-01-13T11:29:59.558Z,98.53
2019-01-13T11:32:27.218Z,98.63
2019-01-13T11:34:53.246Z,98.65
2019-01-13T11:37:19.592Z,99.03
2019-01-13T11:39:45.987Z,98.89
2019-01-13T11:42:12.658Z,98.40
2019-01-13T11:44:38.846Z,98.38
2019-01-13T11:47:05.350Z,98.08
2019-01-13T11:49:31.757Z,97.94
2019-01-13T11:51:57.768Z,97.47
2019-01-13T11:54:23.929Z,97.58
2019-01-13T11:56:50.115Z,97.95
2019-01-13T11:59:16.362Z,97.73
2019-01-13T12:01:42.494Z,97.48
2019-01-13T12:04:09.594Z,97.60
2019-01-13T12:06:35.627Z,97.62
2019-01-13T12:09:02.187Z,97.52
2019-01-13T12:11:28.306Z,97.79
2019-01-13T12:13:54.418Z,97.36
2019-01-13T12:16:20.958Z,97.50
2019-01-13T12:18:46.998Z,97.52
2019-01-13T12:21:13.205Z,97.04
2019-01-13T12:23:39.232Z,97.08
2019-01-13T12:26:05.458Z,96.68
2019-01-13T12:28:31.473Z,96.39
2019-01-13T12:30:57.530Z,96.72
2019-01-13T12:33:24.710Z,96.83
2019-01-13T12:35:51.001Z,97.02
2019-01-13T12:38:17.030Z,96.69
2019-01-13T12:40:43.118Z,96.76
2019-01-13T12:43:09.366Z,96.93
2019-01-13T12:45:35.369Z,96.64
2019-01-13T12:48:01.702Z,96.20
2019-01-13T12:50:28.732Z,96.29
2019-01-13T12:52:54.802Z,96.32
2019-01-13T12:55:21.153Z,96.05
2019-01-13T12:57:47.312Z,95.83
2019-01-13T13:00:15.981Z,95.89
2019-01-13T13:02:42.090Z,95.44
2019-01-13T13:05:10.537Z,95.22
2019-01-13T13:07:36.719Z,95.44
2019-01-13T13:10:23.105Z,95.56
2019-01-13T13:12:49.203Z,95.60
2019-01-13T13:15:15.518Z,95.57
2019-01-13T13:17:41.726Z,95.56
2019-01-13T13:20:16.198Z,95.30
2019-01-13T13:22:42.514Z,95.50
2019-01-13T13:25:10.794Z,95.09
2019-01-13T13:27:36.877Z,95.28
2019-01-13T13:30:06.880Z,95.33
2019-01-13T13:32:32.946Z,94.36
2019-01-13T13:34:58.982Z,94.76
2019-01-13T13:37:25.014Z,94.29
2019-01-13T13:39:51.136Z,93.90
2019-01-13T13:42:17.180Z,93.68
2019-01-13T13:44:43.326Z,92.45
2019-01-13T13:47:09.603Z,92.29
2019-01-13T13:49:35.855Z,92.02
2019-01-13T13:52:01.878Z,91.66
2019-01-13T13:54:27.926Z,92.51
2019-01-13T13:56:53.939Z,93.19
2019-01-13T13:59:20.297Z,93.87
2019-01-13T14:01:46.620Z,94.65
2019-01-13T14:04:12.758Z,94.53
2019-01-13T14:06:38.806Z,94.54
2019-01-13T14:09:06.764Z,94.90
2019-01-13T14:11:33.031Z,94.36
2019-01-13T14:13:59.166Z,94.25
2019-01-13T14:16:25.574Z,94.64
2019-01-13T14:18:51.667Z,94.60
2019-01-13T14:21:17.742Z,94.54
2019-01-13T14:23:43.804Z,94.82
2019-01-13T14:26:09.893Z,94.58
2019-01-13T14:28:35.920Z,94.35
2019-01-13T14:31:02.351Z,94.01
2019-01-13T14:33:28.515Z,94.02
2019-01-13T14:35:55.296Z,94.34
2019-01-13T14:38:21.645Z,93.94
2019-01-13T14:40:48.133Z,93.50
2019-01-13T14:43:14.324Z,93.49
2019-01-13T14:45:40.522Z,93.51
2019-01-13T14:48:06.707Z,92.87
2019-01-13T14:50:33.482Z,93.40
2019-01-13T14:52:59.705Z,94.02
2019-01-13T14:55:25.851Z,93.85
2019-01-13T14:57:52.034Z,94.05
2019-01-13T15:00:26.322Z,93.84
2019-01-13T15:02:52.594Z,94.19
2019-01-13T15:05:21.767Z,94.17
2019-01-13T15:07:48.325Z,94.16
2019-01-13T15:10:17.171Z,94.07
2019-01-13T15:12:43.327Z,94.16
2019-01-13T15:15:11.943Z,93.92
2019-01-13T15:17:38.320Z,93.90
2019-01-13T15:20:10.122Z,94.30
2019-01-13T15:22:36.426Z,94.22
2019-01-13T15:25:05.841Z,93.93
2019-01-13T15:27:31.834Z,91.11
2019-01-13T15:29:58.540Z,91.44
2019-01-13T15:32:25.162Z,90.59
2019-01-13T15:34:51.575Z,89.01
2019-01-13T15:37:18.317Z,89.06
2019-01-13T15:39:44.565Z,89.73
2019-01-13T15:42:10.754Z,89.64
2019-01-13T15:44:37.048Z,89.47
2019-01-13T15:47:03.219Z,89.14
2019-01-13T15:49:29.335Z,89.13
2019-01-13T15:51:55.768Z,89.28
2019-01-13T15:54:22.043Z,88.96
2019-01-13T15:56:48.112Z,88.52
2019-01-13T15:59:14.295Z,88.26
2019-01-13T16:01:40.361Z,88.89
2019-01-13T16:04:14.580Z,88.76
2019-01-13T16:06:37.091Z,88.96
2019-01-13T16:09:07.776Z,89.55
2019-01-13T16:11:34.350Z,88.81
2019-01-13T16:14:01.158Z,89.23
2019-01-13T16:16:28.569Z,88.85
2019-01-13T16:18:54.923Z,89.29
2019-01-13T16:21:21.355Z,88.72
2019-01-13T16:23:47.584Z,88.67
2019-01-13T16:26:13.811Z,88.68
2019-01-13T16:28:39.920Z,88.68
2019-01-13T16:31:06.178Z,88.68
2019-01-13T16:33:32.326Z,88.39
2019-01-13T16:35:58.480Z,88.82
2019-01-13T16:38:24.525Z,88.23
2019-01-13T16:40:50.598Z,88.45
2019-01-13T16:43:16.667Z,87.90
2019-01-13T16:45:43.824Z,88.21
2019-01-13T16:48:09.924Z,88.61
2019-01-13T16:50:36.004Z,88.22
2019-01-13T16:53:05.981Z,88.42
2019-01-13T16:55:30.614Z,87.80
2019-01-13T16:57:56.730Z,87.51
2019-01-13T17:00:24.835Z,87.94
2019-01-13T17:02:51.197Z,87.91
2019-01-13T17:05:19.213Z,87.46
2019-01-13T17:07:45.787Z,87.54
2019-01-13T17:10:14.589Z,86.88
2019-01-13T17:12:40.761Z,86.58
2019-01-13T17:15:09.920Z,86.53
2019-01-13T17:17:36.088Z,87.09
2019-01-13T17:20:05.761Z,87.22
2019-01-13T17:22:31.899Z,87.33
2019-01-13T17:24:58.079Z,87.42
2019-01-13T17:27:24.340Z,87.86
2019-01-13T17:29:50.586Z,88.95
2019-01-13T17:32:16.848Z,89.91
2019-01-13T17:34:44.252Z,90.36
2019-01-13T17:37:10.934Z,90.58
2019-01-13T17:39:37.015Z,90.67
2019-01-13T17:42:03.348Z,90.85
2019-01-13T17:44:29.444Z,89.80
2019-01-13T17:46:55.454Z,89.75
2019-01-13T17:49:21.488Z,89.16
2019-01-13T17:51:47.894Z,88.25
2019-01-13T17:54:14.225Z,87.34
2019-01-13T17:56:40.418Z,87.22
2019-01-13T17:59:06.445Z,86.72
2019-01-13T18:01:33.100Z,86.62
2019-01-13T18:04:00.615Z,85.76
2019-01-13T18:06:27.742Z,85.44
2019-01-13T18:08:55.486Z,85.37
2019-01-13T18:11:21.677Z,84.99
2019-01-13T18:13:47.846Z,84.55
2019-01-13T18:16:14.158Z,85.52
2019-01-13T18:18:40.292Z,85.49
2019-01-13T18:21:06.442Z,85.84
2019-01-13T18:23:32.634Z,86.61
2019-01-13T18:25:58.686Z,85.81
2019-01-13T18:28:24.763Z,86.24
2019-01-13T18:30:51.000Z,86.77
2019-01-13T18:33:17.192Z,86.94
2019-01-13T18:35:43.320Z,87.03
2019-01-13T18:38:09.461Z,88.89
2019-01-13T18:40:36.001Z,90.39
2019-01-13T18:43:02.182Z,90.61
2019-01-13T18:45:28.280Z,90.04
2019-01-13T18:47:54.350Z,89.75
2019-01-13T18:50:22.037Z,89.90
2019-01-13T18:52:52.008Z,88.89
2019-01-13T18:55:18.149Z,87.99
2019-01-13T18:57:44.539Z,88.31
2019-01-13T19:00:22.130Z,88.54
2019-01-13T19:02:48.290Z,88.85
2019-01-13T19:05:16.057Z,89.53
2019-01-13T19:07:42.152Z,89.81
2019-01-13T19:10:21.673Z,90.22
2019-01-13T19:12:51.662Z,90.84
2019-01-13T19:15:17.706Z,91.35
2019-01-13T19:17:44.463Z,91.56
2019-01-13T19:20:13.265Z,91.52
2019-01-13T19:22:39.658Z,91.45
2019-01-13T19:25:09.554Z,90.61
2019-01-13T19:27:35.587Z,90.04
2019-01-13T19:30:08.010Z,89.84
2019-01-13T19:32:34.190Z,89.22
2019-01-13T19:35:04.500Z,89.05
2019-01-13T19:37:28.226Z,88.26
2019-01-13T19:39:54.222Z,88.27
2019-01-13T19:42:20.391Z,87.88
2019-01-13T19:44:46.579Z,87.26
2019-01-13T19:47:12.631Z,86.70
2019-01-13T19:49:38.942Z,86.64
2019-01-13T19:52:04.954Z,86.28
2019-01-13T19:54:33.366Z,86.08
2019-01-13T19:57:02.646Z,85.82
2019-01-13T19:59:29.337Z,85.43
2019-01-13T20:01:55.479Z,85.67
2019-01-13T20:04:21.809Z,85.34
2019-01-13T20:06:47.840Z,84.92
2019-01-13T20:09:13.903Z,84.83
2019-01-13T20:11:39.902Z,83.97
2019-01-13T20:14:05.993Z,84.45
2019-01-13T20:16:32.487Z,84.44
2019-01-13T20:18:58.498Z,84.25
2019-01-13T20:21:24.659Z,83.88
2019-01-13T20:23:50.994Z,84.11
2019-01-13T20:26:17.136Z,84.23
2019-01-13T20:28:43.162Z,83.89
2019-01-13T20:31:09.290Z,84.37
2019-01-13T20:33:35.375Z,84.47
2019-01-13T20:36:01.509Z,84.61
2019-01-13T20:38:27.549Z,84.57
2019-01-13T20:40:53.607Z,84.54
2019-01-13T20:43:19.906Z,84.82
2019-01-13T20:45:46.048Z,84.85
2019-01-13T20:48:12.194Z,85.29
2019-01-13T20:50:38.267Z,85.22
2019-01-13T20:53:04.445Z,84.44
2019-01-13T20:55:30.639Z,84.57
2019-01-13T20:57:56.657Z,84.54
2019-01-13T21:00:27.400Z,83.89
2019-01-13T21:02:54.205Z,83.09
2019-01-13T21:05:26.574Z,81.06
2019-01-13T21:07:52.660Z,76.23
2019-01-13T21:10:20.004Z,74.75
2019-01-13T21:12:46.225Z,74.36
2019-01-13T21:15:24.634Z,75.70
2019-01-13T21:17:57.252Z,76.94
2019-01-13T21:20:19.362Z,77.38
2019-01-13T21:22:46.324Z,76.60
2019-01-13T21:25:15.030Z,75.99
2019-01-13T21:27:41.329Z,74.78
2019-01-13T21:30:16.984Z,74.77
2019-01-13T21:32:43.796Z,75.08
2019-01-13T21:35:10.117Z,75.30
2019-01-13T21:37:36.173Z,75.46
2019-01-13T21:40:05.606Z,75.62
2019-01-13T21:42:31.689Z,78.24
2019-01-13T21:44:57.859Z,75.03
2019-01-13T21:47:23.922Z,76.12
2019-01-13T21:49:49.978Z,76.32
2019-01-13T21:52:16.031Z,76.49
2019-01-13T21:54:42.078Z,76.84
2019-01-13T21:57:08.263Z,76.90
2019-01-13T21:59:34.347Z,77.58
2019-01-13T22:02:00.416Z,77.34
2019-01-13T22:04:26.505Z,77.52
2019-01-13T22:06:52.938Z,77.80
2019-01-13T22:09:20.324Z,78.07
2019-01-13T22:11:47.608Z,78.36
2019-01-13T22:14:15.923Z,78.38
2019-01-13T22:16:42.138Z,78.14
2019-01-13T22:19:08.312Z,78.55
2019-01-13T22:21:34.563Z,78.06
2019-01-13T22:24:00.730Z,78.45
2019-01-13T22:26:26.877Z,78.82
2019-01-13T22:28:53.005Z,79.22
2019-01-13T22:31:22.472Z,79.35
2019-01-13T22:33:47.379Z,79.42
2019-01-13T22:36:13.814Z,79.51
2019-01-13T22:38:39.914Z,79.84
2019-01-13T22:41:06.095Z,79.58
2019-01-13T22:43:32.158Z,80.18
2019-01-13T22:45:58.204Z,80.17
2019-01-13T22:48:24.286Z,80.56
2019-01-13T22:50:50.322Z,80.33
2019-01-13T22:53:16.451Z,80.49
2019-01-13T22:55:42.541Z,80.86
2019-01-13T22:58:08.595Z,80.54
2019-01-13T23:01:04.003Z,80.48
2019-01-13T23:03:30.062Z,80.21
2019-01-13T23:05:56.258Z,79.96
2019-01-13T23:08:22.562Z,80.03
2019-01-13T23:10:48.614Z,80.26
2019-01-13T23:13:14.726Z,80.18
2019-01-13T23:15:40.862Z,80.51
2019-01-13T23:18:06.881Z,80.32
2019-01-13T23:20:32.961Z,80.67
2019-01-13T23:22:58.999Z,80.57
2019-01-13T23:25:25.153Z,80.65
2019-01-13T23:27:51.185Z,80.74
2019-01-13T23:30:17.262Z,80.76
2019-01-13T23:32:43.261Z,80.65
2019-01-13T23:35:09.416Z,80.52
2019-01-13T23:37:35.434Z,80.80
2019-01-13T23:40:03.126Z,80.68
2019-01-13T23:42:29.192Z,80.89
2019-01-13T23:44:55.203Z,80.86
2019-01-13T23:47:21.862Z,80.91
2019-01-13T23:49:48.149Z,81.05
2019-01-13T23:52:14.274Z,80.69
2019-01-13T23:54:40.616Z,80.38
2019-01-13T23:57:06.949Z,79.61
2019-01-13T23:59:32.983Z,80.09
